Time;durP1;ratioP1;P1;durP2;ratioP2;P2;SDS_P1;SDS_P2;PMS_P1;PMS_P2;Temp;Humidity;BMP_temperature;BMP_pressure;BME280_temperature;BME280_humidity;BME280_pressure;Samples;Min_cycle;Max_cycle;Signal;HPM_P1;HPM_P2
2022/10/26 00:01:36;;;;;;;1.75;0.20;;;20.40;63.30;;;;;;5049343;28;20547;-68
2022/10/26 00:04:04;;;;;;;4.20;0.52;;;20.40;63.20;;;;;;5050621;28;20049;-68
2022/10/26 00:06:31;;;;;;;1.02;0.10;;;20.40;63.20;;;;;;5050590;28;20044;-68
2022/10/26 00:08:58;;;;;;;4.32;1.30;;;20.40;63.30;;;;;;5050871;28;20140;-67
2022/10/26 00:11:25;;;;;;;1.45;0.20;;;20.30;63.30;;;;;;5050951;28;20446;-67
2022/10/26 00:13:52;;;;;;;5.43;0.30;;;20.30;63.20;;;;;;5049147;28;20707;-67
2022/10/26 00:16:22;;;;;;;5.15;0.10;;;20.30;63.20;;;;;;5050651;28;20037;-67
2022/10/26 00:18:50;;;;;;;1.70;0.30;;;20.30;63.20;;;;;;5050544;28;20823;-67
2022/10/26 00:21:18;;;;;;;4.13;0.30;;;20.30;63.20;;;;;;5051057;28;20041;-67
2022/10/26 00:23:46;;;;;;;3.03;1.45;;;20.30;63.30;;;;;;5050596;28;20069;-68
2022/10/26 00:26:13;;;;;;;3.78;0.30;;;20.30;63.30;;;;;;5049726;28;20052;-69
2022/10/26 00:28:40;;;;;;;1.48;0.13;;;20.30;63.30;;;;;;5039731;28;20037;-68
2022/10/26 00:31:11;;;;;;;2.20;0.30;;;20.30;63.30;;;;;;5034532;28;20048;-68
2022/10/26 00:33:38;;;;;;;3.03;0.60;;;20.30;63.30;;;;;;5050289;28;20600;-67
2022/10/26 00:36:08;;;;;;;0.70;0.52;;;20.30;63.30;;;;;;5050262;28;20040;-67
2022/10/26 00:38:36;;;;;;;1.80;1.00;;;20.30;63.30;;;;;;5050225;28;20052;-66
2022/10/26 00:41:04;;;;;;;4.03;0.68;;;20.30;63.40;;;;;;5050430;28;20040;-67
2022/10/26 00:43:38;;;;;;;3.33;0.60;;;20.30;63.40;;;;;;5050161;28;20143;-66
2022/10/26 00:46:11;;;;;;;0.73;0.50;;;20.30;63.40;;;;;;5050240;28;20508;-66
2022/10/26 00:48:42;;;;;;;3.63;0.70;;;20.30;63.40;;;;;;5050006;28;20134;-66
2022/10/26 00:51:15;;;;;;;3.58;0.75;;;20.30;63.50;;;;;;5048111;28;20041;-66
2022/10/26 00:53:44;;;;;;;3.97;1.60;;;20.20;63.40;;;;;;5048463;28;20069;-66
2022/10/26 00:56:11;;;;;;;1.23;0.80;;;20.20;63.40;;;;;;5048907;28;20433;-66
2022/10/26 00:58:39;;;;;;;6.63;1.98;;;20.20;63.40;;;;;;5049301;28;20043;-66
2022/10/26 01:01:08;;;;;;;3.05;1.58;;;20.20;63.50;;;;;;5050061;28;20095;-66
2022/10/26 01:03:36;;;;;;;8.15;2.47;;;20.10;63.50;;;;;;5049915;28;20602;-67
2022/10/26 01:06:05;;;;;;;3.33;2.45;;;20.20;63.60;;;;;;5048358;28;20045;-67
2022/10/26 01:08:33;;;;;;;9.55;3.00;;;20.10;63.60;;;;;;5049158;28;20041;-67
2022/10/26 01:11:01;;;;;;;3.83;1.73;;;20.20;63.80;;;;;;5048829;28;20103;-64
2022/10/26 01:13:31;;;;;;;2.30;1.55;;;20.10;63.70;;;;;;5048598;28;20048;-67
2022/10/26 01:16:28;;;;;;;5.65;1.52;;;20.10;63.70;;;;;;5048561;28;20025;-66
2022/10/26 01:19:11;;;;;;;2.85;0.80;;;20.20;63.70;;;;;;5046752;28;20080;-65
2022/10/26 01:21:48;;;;;;;2.20;0.50;;;20.10;63.70;;;;;;5047237;28;20048;-65
2022/10/26 01:24:53;;;;;;;0.95;0.22;;;20.10;63.80;;;;;;5047618;28;20048;-68
2022/10/26 01:27:29;;;;;;;1.23;0.20;;;20.10;63.70;;;;;;5048792;28;20216;-66
2022/10/26 01:30:32;;;;;;;1.98;0.45;;;20.10;63.80;;;;;;5049645;28;20144;-66
2022/10/26 01:33:21;;;;;;;3.03;0.20;;;20.10;63.80;;;;;;5043813;28;20046;-66
2022/10/26 01:35:54;;;;;;;4.07;0.10;;;20.00;63.80;;;;;;5049418;28;20525;-66
2022/10/26 01:38:30;;;;;;;0.20;0.10;;;20.10;63.90;;;;;;5049257;28;20431;-66
2022/10/26 01:41:04;;;;;;;2.67;0.20;;;20.10;63.90;;;;;;5049026;28;20077;-66
2022/10/26 01:43:35;;;;;;;7.20;0.35;;;20.00;63.80;;;;;;5049281;28;20098;-67
2022/10/26 01:46:04;;;;;;;4.85;0.22;;;20.00;63.80;;;;;;5047865;28;20041;-68
2022/10/26 01:48:34;;;;;;;1.70;0.10;;;20.10;63.90;;;;;;5050959;28;20048;-68
2022/10/26 01:51:03;;;;;;;0.85;0.20;;;20.10;63.90;;;;;;5049137;28;20053;-69
2022/10/26 01:53:30;;;;;;;2.28;0.40;;;20.00;63.90;;;;;;5049295;28;20048;-66
2022/10/26 01:55:59;;;;;;;5.88;0.60;;;20.10;64.00;;;;;;5048049;28;20085;-65
2022/10/26 01:58:53;;;;;;;3.80;0.15;;;20.10;64.00;;;;;;5048823;28;20506;-65
2022/10/26 02:01:52;;;;;;;1.50;0.10;;;20.10;63.90;;;;;;5048323;28;20037;-65
2022/10/26 02:04:32;;;;;;;8.43;1.23;;;20.10;63.80;;;;;;5048734;28;20068;-65
2022/10/26 02:07:03;;;;;;;2.42;0.55;;;20.10;64.00;;;;;;5048608;28;20041;-65
2022/10/26 02:09:38;;;;;;;1.25;0.25;;;20.10;64.00;;;;;;5048345;28;20033;-65
2022/10/26 02:15:14;;;;;;;2.60;1.30;;;20.10;63.90;;;;;;4659587;23;20578;-68
2022/10/26 02:17:48;;;;;;;2.08;0.50;;;20.00;63.80;;;;;;4922897;29;20475;-68
2022/10/26 02:20:21;;;;;;;4.13;0.20;;;20.10;63.90;;;;;;4931712;29;20134;-68
2022/10/26 02:22:51;;;;;;;0.20;0.10;;;20.10;63.90;;;;;;4928423;29;20508;-67
2022/10/26 02:25:23;;;;;;;1.63;0.57;;;20.10;63.80;;;;;;4914224;29;20436;-68
2022/10/26 02:27:55;;;;;;;1.52;1.27;;;20.10;63.80;;;;;;4927032;29;20036;-68
2022/10/26 02:30:22;;;;;;;1.17;0.20;;;20.10;64.30;;;;;;4926441;29;20083;-68
2022/10/26 02:32:52;;;;;;;2.40;0.15;;;20.10;63.80;;;;;;4926211;29;20043;-67
2022/10/26 02:35:25;;;;;;;4.57;0.10;;;20.10;63.70;;;;;;4919950;29;20083;-68
2022/10/26 02:37:54;;;;;;;2.40;0.10;;;20.10;63.70;;;;;;4931594;29;20194;-67
2022/10/26 02:40:25;;;;;;;1.55;0.45;;;20.10;63.60;;;;;;4931454;29;20043;-68
2022/10/26 02:42:54;;;;;;;0.93;0.70;;;20.10;63.60;;;;;;4931322;29;20431;-66
2022/10/26 02:45:25;;;;;;;4.68;0.10;;;20.10;63.60;;;;;;4930952;29;20500;-67
2022/10/26 02:47:52;;;;;;;0.90;0.10;;;20.20;63.60;;;;;;4931672;29;20135;-69
2022/10/26 02:50:27;;;;;;;0.90;0.10;;;20.20;63.50;;;;;;4931134;29;20046;-68
2022/10/26 02:53:01;;;;;;;7.30;1.27;;;20.20;63.50;;;;;;4931433;29;20075;-69
2022/10/26 02:55:33;;;;;;;1.25;0.10;;;20.20;63.40;;;;;;4931065;29;20448;-68
2022/10/26 02:58:03;;;;;;;2.13;0.15;;;20.20;63.40;;;;;;4931031;29;20134;-67
2022/10/26 03:00:31;;;;;;;1.08;0.15;;;20.20;63.40;;;;;;4930992;29;20046;-69
2022/10/26 03:03:01;;;;;;;4.00;0.20;;;20.20;63.30;;;;;;4931300;29;20040;-68
2022/10/26 03:05:32;;;;;;;0.88;0.15;;;20.30;63.30;;;;;;4931092;29;20147;-68
2022/10/26 03:08:00;;;;;;;2.22;0.30;;;20.30;63.20;;;;;;4931579;29;20046;-67
2022/10/26 03:10:27;;;;;;;2.60;0.57;;;20.30;63.20;;;;;;4929685;29;20043;-68
2022/10/26 03:12:54;;;;;;;0.77;0.43;;;20.30;63.10;;;;;;4930421;29;20111;-68
2022/10/26 03:15:21;;;;;;;3.17;0.10;;;20.30;63.10;;;;;;4930686;29;20534;-68
2022/10/26 03:17:49;;;;;;;2.97;0.20;;;20.30;63.10;;;;;;4932344;29;20427;-70
2022/10/26 03:20:16;;;;;;;1.65;0.50;;;20.30;63.00;;;;;;4931125;29;20404;-70
2022/10/26 03:22:46;;;;;;;0.63;0.13;;;20.30;63.00;;;;;;4930855;29;20043;-69
2022/10/26 03:25:14;;;;;;;2.45;0.10;;;20.40;63.10;;;;;;4931502;29;20079;-69
2022/10/26 03:27:41;;;;;;;0.93;0.10;;;20.40;63.00;;;;;;4930822;29;20043;-68
2022/10/26 03:30:09;;;;;;;2.47;0.20;;;20.40;63.00;;;;;;4930672;29;20139;-68
2022/10/26 03:32:36;;;;;;;4.90;0.10;;;20.30;62.90;;;;;;4927823;29;20047;-69
2022/10/26 03:35:03;;;;;;;3.40;0.10;;;20.40;63.00;;;;;;4929402;29;20130;-71
2022/10/26 03:37:30;;;;;;;2.78;0.68;;;20.40;63.00;;;;;;4929083;29;20071;-70
2022/10/26 03:39:59;;;;;;;4.30;0.10;;;20.40;62.90;;;;;;4932183;29;20048;-69
2022/10/26 03:42:26;;;;;;;3.80;0.10;;;20.40;62.90;;;;;;4932595;29;20032;-71
2022/10/26 03:44:53;;;;;;;2.55;0.10;;;20.40;62.90;;;;;;4931135;29;20571;-69
2022/10/26 03:47:20;;;;;;;1.85;0.20;;;20.40;62.80;;;;;;4931697;29;20055;-65
2022/10/26 03:49:47;;;;;;;4.25;0.30;;;20.40;62.80;;;;;;4926563;29;20044;-65
2022/10/26 03:52:14;;;;;;;1.23;0.10;;;20.40;62.80;;;;;;4928866;29;20051;-66
2022/10/26 03:54:41;;;;;;;4.90;0.45;;;20.40;62.70;;;;;;4930053;29;20127;-66
2022/10/26 03:57:10;;;;;;;3.05;0.17;;;20.40;62.70;;;;;;4927511;29;20412;-67
2022/10/26 03:59:37;;;;;;;2.13;0.10;;;20.30;62.60;;;;;;4928692;29;20048;-66
2022/10/26 04:02:04;;;;;;;1.65;0.10;;;20.30;62.70;;;;;;4930320;29;20049;-68
2022/10/26 04:04:31;;;;;;;0.20;0.13;;;20.30;62.70;;;;;;4929030;29;20138;-70
2022/10/26 04:06:58;;;;;;;3.55;0.30;;;20.30;62.70;;;;;;4930024;29;20050;-69
2022/10/26 04:09:25;;;;;;;3.28;0.22;;;20.30;62.70;;;;;;4928682;29;20052;-69
2022/10/26 04:11:52;;;;;;;0.52;0.10;;;20.30;62.70;;;;;;4931589;29;20032;-69
2022/10/26 04:14:20;;;;;;;3.10;0.10;;;20.30;62.70;;;;;;4930184;29;20575;-70
2022/10/26 04:16:47;;;;;;;2.00;0.08;;;20.30;62.70;;;;;;4931823;29;20058;-71
2022/10/26 04:19:14;;;;;;;1.73;0.10;;;20.30;62.70;;;;;;4931894;29;20040;-66
2022/10/26 04:21:41;;;;;;;2.90;0.15;;;20.30;62.70;;;;;;4926151;29;20516;-66
2022/10/26 04:24:10;;;;;;;2.08;0.65;;;20.30;62.70;;;;;;4929763;29;20050;-66
2022/10/26 04:26:37;;;;;;;2.97;0.30;;;20.30;62.70;;;;;;4931950;29;20054;-66
2022/10/26 04:29:05;;;;;;;2.70;0.75;;;20.30;62.70;;;;;;4934273;29;20047;-68
2022/10/26 04:31:33;;;;;;;2.17;0.10;;;20.20;62.70;;;;;;4932519;29;20094;-67
2022/10/26 04:34:01;;;;;;;3.40;0.20;;;20.20;62.70;;;;;;4930042;29;20043;-67
2022/10/26 04:36:28;;;;;;;4.25;0.10;;;20.20;62.70;;;;;;4933361;29;20079;-66
2022/10/26 04:38:55;;;;;;;1.52;0.10;;;20.20;62.70;;;;;;4933042;29;20054;-68
2022/10/26 04:41:22;;;;;;;2.97;0.95;;;20.20;62.70;;;;;;4931119;29;20126;-66
2022/10/26 04:43:49;;;;;;;1.08;0.30;;;20.20;62.70;;;;;;4933853;29;20043;-67
2022/10/26 04:46:16;;;;;;;4.65;0.40;;;20.20;62.80;;;;;;4933176;29;20074;-68
2022/10/26 04:48:44;;;;;;;5.45;0.45;;;20.20;62.80;;;;;;4938068;29;20143;-66
2022/10/26 04:51:11;;;;;;;4.68;0.10;;;20.20;62.80;;;;;;4934519;29;20094;-70
2022/10/26 04:53:38;;;;;;;2.72;0.28;;;20.10;62.70;;;;;;4942299;29;20504;-67
2022/10/26 04:56:06;;;;;;;2.25;0.65;;;20.10;62.80;;;;;;4940930;28;20056;-66
2022/10/26 04:58:33;;;;;;;3.35;0.00;;;20.10;62.80;;;;;;4942947;28;20062;-66
2022/10/26 05:01:01;;;;;;;2.88;0.32;;;20.10;62.80;;;;;;4942531;29;20077;-65
2022/10/26 05:03:28;;;;;;;0.65;0.10;;;20.10;62.90;;;;;;4930154;29;21877;-73
2022/10/26 05:05:58;;;;;;;3.65;0.10;;;20.00;62.90;;;;;;4927239;29;20123;-72
2022/10/26 05:08:27;;;;;;;2.20;0.47;;;20.10;63.00;;;;;;4934095;29;20046;-71
2022/10/26 05:10:54;;;;;;;1.73;0.10;;;20.10;63.60;;;;;;4935700;29;20050;-72
2022/10/26 05:13:21;;;;;;;0.40;0.10;;;20.10;63.10;;;;;;4935399;29;20508;-60
2022/10/26 05:15:48;;;;;;;3.40;0.22;;;20.10;63.20;;;;;;4931368;29;20048;-53
2022/10/26 05:18:15;;;;;;;1.45;0.10;;;20.20;64.00;;;;;;4932154;29;20044;-57
2022/10/26 05:20:44;;;;;;;5.30;1.27;;;20.30;64.40;;;;;;4932088;29;20039;-55
2022/10/26 05:23:17;;;;;;;14.30;0.17;;;20.40;64.70;;;;;;4928588;29;20059;-56
2022/10/26 05:25:44;;;;;;;0.95;0.20;;;20.60;64.70;;;;;;4931810;29;20127;-55
2022/10/26 05:28:12;;;;;;;1.38;0.10;;;20.80;64.60;;;;;;4932142;29;20485;-55
2022/10/26 05:30:40;;;;;;;1.60;0.10;;;21.00;64.50;;;;;;4916536;29;20051;-56
2022/10/26 05:33:08;;;;;;;0.32;0.10;;;21.10;64.20;;;;;;4931832;29;20461;-53
2022/10/26 05:35:35;;;;;;;2.85;0.45;;;21.30;64.50;;;;;;4931723;29;20404;-53
2022/10/26 05:38:07;;;;;;;0.05;0.05;;;21.50;63.60;;;;;;4931007;29;20050;-51
2022/10/26 05:40:35;;;;;;;3.35;0.10;;;21.70;63.20;;;;;;4931667;29;20044;-52
2022/10/26 05:43:02;;;;;;;4.85;0.10;;;21.80;62.80;;;;;;4929804;29;20058;-56
2022/10/26 05:45:30;;;;;;;3.78;0.17;;;21.90;62.50;;;;;;4923333;29;20154;-56
2022/10/26 05:47:57;;;;;;;2.15;0.10;;;22.00;62.10;;;;;;4931300;29;20451;-63
2022/10/26 05:50:24;;;;;;;3.70;0.20;;;22.20;61.90;;;;;;4929745;29;20091;-63
2022/10/26 05:52:51;;;;;;;0.22;0.10;;;22.20;61.50;;;;;;4930196;29;20538;-63
2022/10/26 05:55:19;;;;;;;6.18;0.10;;;22.30;61.20;;;;;;4930995;29;20095;-63
2022/10/26 05:57:48;;;;;;;0.68;0.10;;;22.40;61.00;;;;;;4930265;29;20043;-62
2022/10/26 06:00:18;;;;;;;0.38;0.10;;;22.50;60.70;;;;;;4930558;29;20079;-61
2022/10/26 06:03:00;;;;;;;1.23;0.10;;;22.50;60.50;;;;;;4929519;29;20134;-61
2022/10/26 06:05:29;;;;;;;1.00;0.10;;;22.60;60.30;;;;;;4929230;29;20489;-61
2022/10/26 06:07:56;;;;;;;0.20;0.10;;;22.70;60.10;;;;;;4928062;29;20043;-64
2022/10/26 06:10:24;;;;;;;12.25;0.20;;;22.80;60.00;;;;;;4929410;29;20044;-61
2022/10/26 06:12:53;;;;;;;1.77;0.10;;;22.80;60.10;;;;;;4926937;29;20503;-69
2022/10/26 06:15:22;;;;;;;1.13;0.10;;;22.90;60.20;;;;;;4927032;29;20047;-60
2022/10/26 06:18:01;;;;;;;0.95;0.10;;;23.10;60.20;;;;;;4925840;29;20032;-65
2022/10/26 06:20:41;;;;;;;0.40;0.17;;;23.20;60.00;;;;;;4933531;29;20667;-62
2022/10/26 06:23:32;;;;;;;5.72;0.10;;;23.40;59.90;;;;;;4922044;29;20130;-62
2022/10/26 06:26:09;;;;;;;3.10;0.10;;;23.60;59.60;;;;;;4925727;29;20880;-64
2022/10/26 06:28:48;;;;;;;2.00;0.20;;;23.70;59.40;;;;;;4930974;29;20051;-63
2022/10/26 06:31:16;;;;;;;2.47;0.57;;;23.90;59.10;;;;;;4931250;29;20442;-61
2022/10/26 06:33:43;;;;;;;3.05;0.13;;;24.00;59.50;;;;;;4930731;29;20067;-61
2022/10/26 06:36:21;;;;;;;0.45;0.17;;;24.20;58.70;;;;;;4927507;29;20043;-59
2022/10/26 06:38:50;;;;;;;0.63;0.10;;;24.40;58.40;;;;;;4928895;29;20036;-60
2022/10/26 06:41:21;;;;;;;2.15;1.20;;;24.50;58.20;;;;;;4924444;29;20046;-59
2022/10/26 06:43:51;;;;;;;1.65;0.10;;;24.70;57.90;;;;;;4926898;29;20083;-60
2022/10/26 06:46:31;;;;;;;2.28;0.10;;;24.90;57.50;;;;;;4930430;29;20107;-61
2022/10/26 06:49:06;;;;;;;3.55;0.30;;;25.10;57.30;;;;;;4930412;29;20040;-61
2022/10/26 06:51:39;;;;;;;3.00;0.10;;;25.20;57.00;;;;;;4930427;29;20067;-61
2022/10/26 06:54:13;;;;;;;2.00;0.88;;;25.30;56.60;;;;;;4930118;29;20089;-59
2022/10/26 06:56:40;;;;;;;2.38;0.40;;;25.40;56.40;;;;;;4914979;29;20058;-61
2022/10/26 06:59:15;;;;;;;1.15;0.10;;;25.50;56.20;;;;;;4930373;29;20683;-61
2022/10/26 07:01:42;;;;;;;1.08;0.13;;;25.60;56.10;;;;;;4930788;29;20421;-63
2022/10/26 07:04:09;;;;;;;0.47;0.10;;;25.60;55.90;;;;;;4930312;29;20119;-61
2022/10/26 07:06:36;;;;;;;1.35;0.17;;;25.80;56.00;;;;;;4926874;29;20415;-60
2022/10/26 07:09:04;;;;;;;0.82;0.63;;;25.80;55.70;;;;;;4930220;29;20043;-64
2022/10/26 07:11:31;;;;;;;4.40;0.63;;;26.00;55.60;;;;;;4930069;29;20130;-62
2022/10/26 07:13:58;;;;;;;5.10;0.35;;;26.10;55.50;;;;;;4925061;29;20058;-64
2022/10/26 07:16:26;;;;;;;3.35;0.30;;;26.10;55.30;;;;;;4930156;29;20066;-63
2022/10/26 07:18:53;;;;;;;4.35;0.15;;;26.20;55.10;;;;;;4929629;29;20044;-61
2022/10/26 07:21:20;;;;;;;1.80;0.30;;;26.30;54.80;;;;;;4930150;29;20091;-63
2022/10/26 07:23:48;;;;;;;1.63;0.20;;;26.30;54.40;;;;;;4928705;29;20918;-61
2022/10/26 07:26:15;;;;;;;2.17;0.10;;;26.30;54.10;;;;;;4928118;29;20043;-61
2022/10/26 07:28:42;;;;;;;4.00;0.35;;;26.30;53.80;;;;;;4930254;29;20078;-60
2022/10/26 07:31:09;;;;;;;2.83;0.43;;;26.30;53.70;;;;;;4928787;29;20101;-62
2022/10/26 07:33:37;;;;;;;1.90;0.22;;;26.30;53.50;;;;;;4926858;29;20150;-64
2022/10/26 07:36:07;;;;;;;3.15;0.22;;;26.30;53.40;;;;;;4924910;29;20480;-63
2022/10/26 07:38:34;;;;;;;2.95;0.75;;;26.30;53.60;;;;;;4928680;29;20390;-60
2022/10/26 07:41:02;;;;;;;8.18;0.20;;;26.30;53.40;;;;;;4929510;29;20036;-61
2022/10/26 07:43:29;;;;;;;1.38;0.20;;;26.30;53.10;;;;;;4929954;29;20500;-61
2022/10/26 07:45:56;;;;;;;2.22;0.22;;;26.40;53.00;;;;;;4930335;29;20461;-59
2022/10/26 07:48:23;;;;;;;3.53;0.40;;;26.40;52.90;;;;;;4929717;29;20056;-61
2022/10/26 07:50:51;;;;;;;2.08;0.22;;;26.40;52.70;;;;;;4930305;29;20048;-57
2022/10/26 07:53:18;;;;;;;2.38;0.30;;;26.40;52.70;;;;;;4930262;29;20114;-62
2022/10/26 07:55:54;;;;;;;2.15;0.10;;;26.40;52.60;;;;;;4930136;29;20048;-60
2022/10/26 07:58:23;;;;;;;1.90;0.20;;;26.40;52.50;;;;;;4929967;29;20051;-59
2022/10/26 08:00:50;;;;;;;1.65;0.20;;;26.40;52.60;;;;;;4933784;29;20066;-75
2022/10/26 08:03:17;;;;;;;2.35;0.10;;;26.40;52.40;;;;;;4937676;29;20052;-62
2022/10/26 08:05:46;;;;;;;3.65;0.85;;;26.40;52.40;;;;;;4932841;29;20568;-61
2022/10/26 08:08:15;;;;;;;5.28;0.30;;;26.40;52.40;;;;;;4931325;29;20419;-61
2022/10/26 08:10:43;;;;;;;3.75;1.02;;;26.40;52.40;;;;;;4933844;29;20036;-63
2022/10/26 08:13:11;;;;;;;2.55;0.10;;;26.40;52.30;;;;;;4932118;29;20512;-61
2022/10/26 08:15:38;;;;;;;5.90;0.88;;;26.40;52.40;;;;;;4925478;29;20060;-60
2022/10/26 08:18:06;;;;;;;1.75;0.15;;;26.40;52.30;;;;;;4932964;29;20043;-64
2022/10/26 08:20:33;;;;;;;0.88;0.40;;;26.40;52.40;;;;;;4933477;29;20058;-62
2022/10/26 08:23:02;;;;;;;0.80;0.10;;;26.40;52.40;;;;;;4933796;29;20568;-61
2022/10/26 08:25:31;;;;;;;3.58;0.30;;;26.40;52.40;;;;;;4933207;29;20040;-61
2022/10/26 08:28:01;;;;;;;0.45;0.10;;;26.30;52.30;;;;;;4933145;29;20146;-68
2022/10/26 08:30:29;;;;;;;4.78;1.15;;;26.30;52.30;;;;;;4935333;29;20046;-63
2022/10/26 08:33:00;;;;;;;0.75;0.17;;;26.30;52.40;;;;;;4933255;29;20535;-62
2022/10/26 08:35:27;;;;;;;5.57;0.13;;;26.30;52.30;;;;;;4933292;29;20111;-62
2022/10/26 08:37:54;;;;;;;3.42;0.25;;;26.30;52.20;;;;;;4933828;29;20488;-61
2022/10/26 08:40:25;;;;;;;4.57;0.43;;;26.30;52.20;;;;;;4933223;29;20051;-67
2022/10/26 08:43:00;;;;;;;4.57;0.73;;;26.30;52.10;;;;;;4933403;29;20058;-65
2022/10/26 08:45:31;;;;;;;2.00;0.40;;;26.30;52.20;;;;;;4933085;29;20052;-61
2022/10/26 08:48:01;;;;;;;2.05;1.05;;;26.30;52.20;;;;;;4932403;29;20067;-60
2022/10/26 08:50:33;;;;;;;3.10;0.28;;;26.30;52.20;;;;;;4932895;29;20079;-61
2022/10/26 08:53:06;;;;;;;3.38;0.68;;;26.30;52.30;;;;;;4932559;29;20067;-60
2022/10/26 08:55:41;;;;;;;0.80;0.55;;;26.20;52.10;;;;;;4933318;29;20075;-66
2022/10/26 08:58:15;;;;;;;2.80;0.10;;;26.20;52.10;;;;;;4933154;29;20040;-68
2022/10/26 09:00:42;;;;;;;2.15;0.25;;;26.20;52.20;;;;;;4918238;29;20035;-69
2022/10/26 09:03:14;;;;;;;2.65;0.10;;;26.20;52.30;;;;;;4930265;29;20419;-67
2022/10/26 09:05:55;;;;;;;3.20;0.75;;;26.20;52.20;;;;;;4932129;29;20131;-62
2022/10/26 09:08:31;;;;;;;1.35;0.30;;;26.20;52.10;;;;;;4930403;29;20047;-66
2022/10/26 09:11:06;;;;;;;0.88;0.45;;;26.20;52.10;;;;;;4932192;29;20039;-68
2022/10/26 09:13:45;;;;;;;4.53;0.15;;;26.20;52.10;;;;;;4932395;29;20150;-59
2022/10/26 09:16:21;;;;;;;2.15;0.10;;;26.20;52.00;;;;;;4932097;29;20059;-64
2022/10/26 09:19:01;;;;;;;0.35;0.35;;;26.20;52.00;;;;;;4929313;29;20043;-63
2022/10/26 09:21:42;;;;;;;0.47;0.10;;;26.20;52.00;;;;;;4932179;29;20129;-62
2022/10/26 09:24:15;;;;;;;3.15;0.57;;;26.20;52.00;;;;;;4931109;29;20068;-63
2022/10/26 09:26:54;;;;;;;1.98;0.10;;;26.20;52.00;;;;;;4930830;29;20047;-60
2022/10/26 09:29:27;;;;;;;0.73;0.10;;;26.20;52.00;;;;;;4932155;29;20130;-62
2022/10/26 09:31:57;;;;;;;1.60;0.85;;;26.10;51.80;;;;;;4932964;29;20059;-67
2022/10/26 09:34:29;;;;;;;0.80;0.10;;;26.20;51.80;;;;;;4931913;29;20047;-64
2022/10/26 09:36:56;;;;;;;1.58;0.13;;;26.20;51.80;;;;;;4933021;29;20094;-65
2022/10/26 09:39:36;;;;;;;0.93;0.10;;;26.20;51.70;;;;;;4932224;29;20054;-64
2022/10/26 09:42:14;;;;;;;3.03;0.45;;;26.20;51.60;;;;;;4932113;29;20055;-56
2022/10/26 09:44:49;;;;;;;2.70;0.20;;;26.20;51.60;;;;;;4916330;29;20118;-59
2022/10/26 09:47:26;;;;;;;1.60;0.10;;;26.20;51.60;;;;;;4932194;29;20503;-63
2022/10/26 09:49:56;;;;;;;0.40;0.10;;;26.20;51.60;;;;;;4932444;29;20131;-61
2022/10/26 09:52:23;;;;;;;1.13;0.45;;;26.20;51.50;;;;;;4931719;29;20060;-63
2022/10/26 09:54:50;;;;;;;2.15;0.13;;;26.20;51.40;;;;;;4932409;29;20126;-62
2022/10/26 09:57:20;;;;;;;0.77;0.35;;;26.30;51.40;;;;;;4915154;29;20095;-61
2022/10/26 09:59:51;;;;;;;1.55;0.40;;;26.30;51.40;;;;;;4931353;29;20138;-61
2022/10/26 10:02:35;;;;;;;2.00;0.10;;;26.30;51.30;;;;;;4931682;29;20147;-64
2022/10/26 10:05:20;;;;;;;2.65;0.20;;;26.40;51.30;;;;;;4930478;29;20071;-62
2022/10/26 10:07:47;;;;;;;0.30;0.10;;;26.40;51.30;;;;;;4926909;29;20523;-59
2022/10/26 10:10:17;;;;;;;2.83;0.30;;;26.40;51.20;;;;;;4931551;29;20048;-61
2022/10/26 10:12:48;;;;;;;1.45;0.20;;;26.40;51.10;;;;;;4929965;29;20531;-62
2022/10/26 10:15:21;;;;;;;1.55;0.10;;;26.50;51.10;;;;;;4931364;29;20094;-61
2022/10/26 10:17:50;;;;;;;0.50;0.30;;;26.50;51.00;;;;;;4931505;29;20066;-60
2022/10/26 10:20:21;;;;;;;1.02;0.03;;;26.60;51.10;;;;;;4931463;29;20127;-55
2022/10/26 10:22:56;;;;;;;13.70;0.20;;;26.60;51.00;;;;;;4930999;29;20048;-60
2022/10/26 10:25:33;;;;;;;1.13;0.10;;;26.70;51.00;;;;;;4932724;29;20043;-69
2022/10/26 10:28:01;;;;;;;0.57;0.10;;;26.70;50.90;;;;;;4935779;29;20047;-64
2022/10/26 10:30:32;;;;;;;1.98;0.10;;;26.70;50.90;;;;;;4931330;29;20074;-62
2022/10/26 10:33:06;;;;;;;5.00;0.20;;;26.70;50.70;;;;;;4932329;29;20078;-61
2022/10/26 10:35:33;;;;;;;2.07;0.10;;;26.70;50.70;;;;;;4931295;29;20484;-69
2022/10/26 10:38:01;;;;;;;0.30;0.00;;;26.80;50.80;;;;;;4931244;29;20048;-59
2022/10/26 10:40:30;;;;;;;1.77;0.10;;;26.80;50.80;;;;;;4921122;29;20052;-64
2022/10/26 10:43:07;;;;;;;1.35;0.10;;;26.80;50.80;;;;;;4931024;29;20533;-61
2022/10/26 10:45:36;;;;;;;1.67;0.20;;;26.90;50.70;;;;;;4931054;29;20079;-67
2022/10/26 10:48:13;;;;;;;1.25;0.43;;;26.90;51.30;;;;;;4931494;29;20048;-68
2022/10/26 10:50:51;;;;;;;0.90;0.13;;;26.90;50.80;;;;;;4921061;29;20047;-60
2022/10/26 10:53:23;;;;;;;2.80;0.20;;;26.90;50.70;;;;;;4929895;29;20058;-60
2022/10/26 10:56:17;;;;;;;2.55;0.40;;;26.90;50.80;;;;;;4928597;29;20632;-58
2022/10/26 10:58:51;;;;;;;1.13;0.10;;;26.90;50.70;;;;;;4928316;29;20078;-58
2022/10/26 11:01:22;;;;;;;3.08;0.10;;;26.90;50.50;;;;;;4929559;29;20047;-57
2022/10/26 11:04:05;;;;;;;4.60;0.15;;;26.90;50.70;;;;;;4928687;29;20075;-58
2022/10/26 11:06:36;;;;;;;2.05;0.20;;;26.90;50.90;;;;;;4928212;29;20074;-58
2022/10/26 11:09:07;;;;;;;2.40;0.20;;;26.80;50.80;;;;;;4929315;29;20071;-58
2022/10/26 11:11:38;;;;;;;2.25;0.40;;;26.70;51.50;;;;;;4930173;29;20044;-57
2022/10/26 11:14:09;;;;;;;4.78;0.30;;;26.70;51.10;;;;;;4930337;29;20082;-61
2022/10/26 11:16:43;;;;;;;2.83;0.15;;;26.80;51.30;;;;;;4930245;29;20110;-59
2022/10/26 11:19:18;;;;;;;1.85;0.10;;;26.70;51.20;;;;;;4930283;29;20620;-58
2022/10/26 11:21:49;;;;;;;0.80;0.20;;;26.70;51.40;;;;;;4930411;29;20050;-58
2022/10/26 11:24:21;;;;;;;0.47;0.10;;;26.70;51.40;;;;;;4930823;29;20528;-58
2022/10/26 11:26:54;;;;;;;0.63;0.10;;;26.70;51.50;;;;;;4929051;29;20464;-57
2022/10/26 11:29:27;;;;;;;2.15;0.10;;;26.70;51.60;;;;;;4913066;29;20048;-56
2022/10/26 11:32:03;;;;;;;0.98;0.28;;;26.70;51.70;;;;;;4910169;29;20087;-58
2022/10/26 11:34:37;;;;;;;3.42;0.10;;;26.70;51.70;;;;;;4913054;29;20051;-57
2022/10/26 11:37:09;;;;;;;4.63;0.10;;;26.70;51.70;;;;;;4914176;29;20059;-59
2022/10/26 11:39:44;;;;;;;1.60;0.10;;;26.70;51.70;;;;;;4930690;29;20138;-60
2022/10/26 11:42:19;;;;;;;0.68;0.10;;;26.70;51.70;;;;;;4930230;29;20072;-59
2022/10/26 11:44:52;;;;;;;4.18;0.15;;;26.70;51.70;;;;;;4930441;29;20604;-59
2022/10/26 11:47:29;;;;;;;0.40;0.10;;;26.70;51.70;;;;;;4928943;29;20059;-59
2022/10/26 11:50:04;;;;;;;0.20;0.00;;;26.70;51.70;;;;;;4930668;29;20052;-59
2022/10/26 11:52:39;;;;;;;2.75;0.85;;;26.70;51.70;;;;;;4930515;29;20531;-57
2022/10/26 11:55:10;;;;;;;1.00;0.10;;;26.70;51.80;;;;;;4930093;29;20055;-59
2022/10/26 11:57:38;;;;;;;1.38;0.43;;;26.70;51.80;;;;;;4930192;29;20052;-59
2022/10/26 12:00:09;;;;;;;6.25;0.10;;;26.70;51.80;;;;;;4930615;29;20132;-59
2022/10/26 12:02:41;;;;;;;0.20;0.10;;;26.70;51.80;;;;;;4929287;29;20063;-60
2022/10/26 12:05:19;;;;;;;2.42;0.10;;;26.70;51.80;;;;;;4930389;29;20513;-60
2022/10/26 12:07:49;;;;;;;2.25;0.40;;;26.70;51.80;;;;;;4930330;29;20059;-58
2022/10/26 12:10:26;;;;;;;1.17;0.10;;;26.70;51.90;;;;;;4930005;29;20051;-58
2022/10/26 12:12:59;;;;;;;5.47;1.95;;;26.70;51.90;;;;;;4930190;29;20055;-60
2022/10/26 12:15:34;;;;;;;0.57;0.10;;;26.70;51.90;;;;;;4930029;29;20060;-60
2022/10/26 12:18:11;;;;;;;1.65;0.43;;;26.70;51.90;;;;;;4921347;29;20123;-59
2022/10/26 12:21:05;;;;;;;4.03;0.10;;;26.70;51.90;;;;;;4930137;29;20554;-60
2022/10/26 12:23:37;;;;;;;1.15;0.10;;;26.80;51.90;;;;;;4929918;29;20051;-62
2022/10/26 12:26:47;;;;;;;0.95;0.10;;;26.70;52.00;;;;;;4927804;29;20050;-60
2022/10/26 12:29:34;;;;;;;0.10;0.00;;;26.80;51.90;;;;;;4926941;29;20055;-60
2022/10/26 12:32:02;;;;;;;0.68;0.30;;;26.80;51.90;;;;;;4915622;29;20138;-60
2022/10/26 12:35:02;;;;;;;0.50;0.10;;;26.80;52.00;;;;;;4929861;29;20043;-60
2022/10/26 12:37:34;;;;;;;0.20;0.10;;;26.80;51.90;;;;;;4930147;29;20091;-60
2022/10/26 12:40:40;;;;;;;2.30;0.00;;;26.80;52.00;;;;;;4914883;29;20139;-58
2022/10/26 12:43:39;;;;;;;1.37;0.07;;;26.90;52.00;;;;;;4921944;29;20131;-60
2022/10/26 12:46:43;;;;;;;0.85;0.08;;;26.90;52.00;;;;;;4928833;29;20299;-59
2022/10/26 12:49:59;;;;;;;2.05;0.10;;;26.90;52.00;;;;;;4930594;29;20051;-59
2022/10/26 12:52:34;;;;;;;7.68;1.50;;;26.90;51.20;;;;;;4932240;29;20136;-60
2022/10/26 12:55:22;;;;;;;;;;;27.00;50.50;;;;;;4933204;29;20147;-59
2022/10/26 12:58:02;;;;;;;0.70;0.20;;;27.00;50.60;;;;;;4929399;29;20526;-59
2022/10/26 13:00:29;;;;;;;3.92;0.10;;;27.00;49.90;;;;;;4932394;29;20405;-55
2022/10/26 13:03:13;;;;;;;4.70;0.10;;;27.10;49.60;;;;;;4932607;29;20035;-59
2022/10/26 13:06:08;;;;;;;1.52;0.20;;;27.10;49.10;;;;;;4928507;29;20044;-58
2022/10/26 13:08:42;;;;;;;0.95;0.10;;;27.10;48.80;;;;;;4930175;29;20059;-53
2022/10/26 13:11:17;;;;;;;2.80;0.30;;;27.10;48.50;;;;;;4932286;29;20040;-52
2022/10/26 13:13:44;;;;;;;3.58;0.20;;;27.10;48.20;;;;;;4932121;29;20130;-56
2022/10/26 13:16:16;;;;;;;2.75;0.10;;;27.20;48.40;;;;;;4929481;29;20079;-57